createdAt,value
2022-11-13T00:01:27.581Z,99584.06
2022-11-13T00:03:54.303Z,99581.84
2022-11-13T00:06:21.003Z,99588.38
2022-11-13T00:08:52.994Z,99586.66
2022-11-13T00:11:19.878Z,99581.50
2022-11-13T00:13:46.876Z,99584.09
2022-11-13T00:16:14.406Z,99577.16
2022-11-13T00:18:41.916Z,99572.97
2022-11-13T00:21:09.779Z,99579.75
2022-11-13T00:23:36.778Z,99574.63
2022-11-13T00:26:22.481Z,99587.44
2022-11-13T00:28:52.855Z,99588.28
2022-11-13T00:31:19.514Z,99583.78
2022-11-13T00:34:09.022Z,99583.03
2022-11-13T00:36:32.889Z,99579.59
2022-11-13T00:38:59.543Z,99587.84
2022-11-13T00:41:26.204Z,99581.19
2022-11-13T00:43:52.899Z,99577.13
2022-11-13T00:46:19.564Z,99588.06
2022-11-13T00:48:47.287Z,99579.50
2022-11-13T00:51:14.187Z,99575.97
2022-11-13T00:53:40.861Z,99573.44
2022-11-13T00:56:07.592Z,99573.31
2022-11-13T00:58:34.244Z,99575.25
2022-11-13T01:01:05.883Z,99573.47
2022-11-13T01:03:32.528Z,99579.50
2022-11-13T01:05:59.208Z,99573.56
2022-11-13T01:08:26.165Z,99574.41
2022-11-13T01:10:53.956Z,99572.53
2022-11-13T01:13:20.826Z,99569.91
2022-11-13T01:15:47.512Z,99568.97
2022-11-13T01:18:14.168Z,99561.41
2022-11-13T01:20:40.992Z,99569.94
2022-11-13T01:23:07.728Z,99567.56
2022-11-13T01:25:34.415Z,99558.87
2022-11-13T01:28:01.052Z,99564.16
2022-11-13T01:30:27.743Z,99556.59
2022-11-13T01:32:54.378Z,99547.22
2022-11-13T01:35:21.263Z,99549.63
2022-11-13T01:37:47.914Z,99557.84
2022-11-13T01:40:14.777Z,99554.09
2022-11-13T01:42:41.446Z,99554.62
2022-11-13T01:45:27.373Z,99543.72
2022-11-13T01:47:54.029Z,99550.72
2022-11-13T01:50:20.733Z,99544.72
2022-11-13T01:52:47.365Z,99537.19
2022-11-13T01:55:14.658Z,99536.84
2022-11-13T01:57:41.627Z,99536.69
2022-11-13T02:00:15.277Z,99525.22
2022-11-13T02:02:41.978Z,99529.25
2022-11-13T02:05:09.404Z,99530.03
2022-11-13T02:07:36.091Z,99529.06
2022-11-13T02:10:02.777Z,99526.84
2022-11-13T02:12:31.447Z,99526.66
2022-11-13T02:14:58.481Z,99526.69
2022-11-13T02:17:27.028Z,99523.13
2022-11-13T02:19:58.080Z,99522.81
2022-11-13T02:22:43.335Z,99524.69
2022-11-13T02:25:10.041Z,99527.09
2022-11-13T02:27:40.259Z,99525.56
2022-11-13T02:30:16.296Z,99521.91
2022-11-13T02:32:44.383Z,99522.81
2022-11-13T02:35:11.755Z,99524.72
2022-11-13T02:37:38.520Z,99521.69
2022-11-13T02:40:05.454Z,99520.22
2022-11-13T02:42:32.459Z,99514.16
2022-11-13T02:44:59.353Z,99507.78
2022-11-13T02:47:26.080Z,99518.66
2022-11-13T02:49:52.742Z,99510.88
2022-11-13T02:52:19.459Z,99510.59
2022-11-13T02:54:46.116Z,99501.75
2022-11-13T02:57:12.775Z,99506.69
2022-11-13T02:59:39.419Z,99504.75
2022-11-13T03:02:06.201Z,99507.03
2022-11-13T03:04:57.221Z,99507.03
2022-11-13T03:07:19.635Z,99510.03
2022-11-13T03:09:46.539Z,99514.06
2022-11-13T03:12:13.213Z,99507.31
2022-11-13T03:14:39.861Z,99501.91
2022-11-13T03:17:06.539Z,99507.63
2022-11-13T03:19:33.220Z,99509.19
2022-11-13T03:21:59.913Z,99508.16
2022-11-13T03:24:26.552Z,99516.00
2022-11-13T03:26:53.625Z,99519.19
2022-11-13T03:29:20.285Z,99522.84
2022-11-13T03:31:47.000Z,99511.13
2022-11-13T03:34:13.664Z,99509.53
2022-11-13T03:36:40.338Z,99510.38
2022-11-13T03:39:07.018Z,99514.53
2022-11-13T03:41:33.690Z,99516.97
2022-11-13T03:44:00.357Z,99509.06
2022-11-13T03:46:27.040Z,99511.06
2022-11-13T03:48:53.702Z,99510.84
2022-11-13T03:51:20.348Z,99505.03
2022-11-13T03:53:47.006Z,99514.34
2022-11-13T03:56:13.655Z,99514.59
2022-11-13T03:58:40.593Z,99508.88
2022-11-13T04:01:07.491Z,99509.03
2022-11-13T04:03:34.130Z,99513.94
2022-11-13T04:06:00.798Z,99515.69
2022-11-13T04:08:27.720Z,99510.75
2022-11-13T04:10:54.596Z,99514.31
2022-11-13T04:13:21.260Z,99520.87
2022-11-13T04:15:47.979Z,99526.13
2022-11-13T04:18:14.650Z,99522.63
2022-11-13T04:20:41.306Z,99520.06
2022-11-13T04:23:12.724Z,99518.41
2022-11-13T04:25:39.431Z,99522.66
2022-11-13T04:28:06.057Z,99517.44
2022-11-13T04:30:32.757Z,99520.31
2022-11-13T04:32:59.437Z,99514.06
2022-11-13T04:35:26.113Z,99506.44
2022-11-13T04:37:53.299Z,99507.34
2022-11-13T04:40:19.965Z,99498.66
2022-11-13T04:42:49.548Z,99496.91
2022-11-13T04:45:20.397Z,99499.38
2022-11-13T04:47:47.171Z,99497.59
2022-11-13T04:50:14.611Z,99496.28
2022-11-13T04:52:41.326Z,99491.34
2022-11-13T04:55:08.501Z,99492.94
2022-11-13T04:57:35.182Z,99493.88
2022-11-13T05:00:01.953Z,99496.28
2022-11-13T05:02:28.617Z,99489.44
2022-11-13T05:04:55.680Z,99496.41
2022-11-13T05:07:24.044Z,99493.88
2022-11-13T05:09:50.707Z,99487.78
2022-11-13T05:12:17.414Z,99488.81
2022-11-13T05:14:44.068Z,99485.31
2022-11-13T05:17:11.156Z,99490.66
2022-11-13T05:19:37.830Z,99498.25
2022-11-13T05:22:04.736Z,99488.78
2022-11-13T05:24:31.438Z,99482.59
2022-11-13T05:26:58.117Z,99490.37
2022-11-13T05:29:24.868Z,99489.28
2022-11-13T05:31:51.535Z,99471.59
2022-11-13T05:34:18.226Z,99479.41
2022-11-13T05:36:44.918Z,99476.97
2022-11-13T05:39:11.590Z,99470.19
2022-11-13T05:41:38.307Z,99463.91
2022-11-13T05:44:04.976Z,99473.19
2022-11-13T05:46:31.638Z,99473.47
2022-11-13T05:48:59.087Z,99469.94
2022-11-13T05:51:26.633Z,99476.84
2022-11-13T05:53:53.796Z,99474.13
2022-11-13T05:56:22.252Z,99483.28
2022-11-13T05:58:48.931Z,99485.84
2022-11-13T06:01:17.004Z,99480.09
2022-11-13T06:03:43.985Z,99474.09
2022-11-13T06:06:11.910Z,99473.56
2022-11-13T06:08:39.628Z,99479.59
2022-11-13T06:11:07.252Z,99487.31
2022-11-13T06:13:34.026Z,99491.47
2022-11-13T06:16:01.648Z,99487.09
2022-11-13T06:18:28.796Z,99493.19
2022-11-13T06:20:55.838Z,99498.22
2022-11-13T06:23:22.465Z,99503.31
2022-11-13T06:25:49.160Z,99498.31
2022-11-13T06:28:15.877Z,99503.63
2022-11-13T06:30:42.649Z,99506.97
2022-11-13T06:33:09.317Z,99517.16
2022-11-13T06:35:35.961Z,99517.97
2022-11-13T06:38:02.656Z,99524.09
2022-11-13T06:40:29.418Z,99524.78
2022-11-13T06:42:56.104Z,99523.94
2022-11-13T06:45:22.834Z,99520.37
2022-11-13T06:47:49.486Z,99519.63
2022-11-13T06:50:16.173Z,99515.25
2022-11-13T06:52:42.820Z,99518.22
2022-11-13T06:55:09.474Z,99524.78
2022-11-13T06:57:36.150Z,99519.31
2022-11-13T07:00:02.852Z,99521.87
2022-11-13T07:02:29.517Z,99523.91
2022-11-13T07:04:56.195Z,99519.59
2022-11-13T07:07:22.932Z,99520.94
2022-11-13T07:09:49.687Z,99528.44
2022-11-13T07:12:16.344Z,99531.47
2022-11-13T07:14:42.995Z,99523.59
2022-11-13T07:17:10.692Z,99526.41
2022-11-13T07:19:37.483Z,99524.78
2022-11-13T07:22:04.138Z,99524.22
2022-11-13T07:24:30.794Z,99522.88
2022-11-13T07:26:57.438Z,99517.84
2022-11-13T07:29:24.108Z,99510.56
2022-11-13T07:31:50.765Z,99508.38
2022-11-13T07:34:17.457Z,99498.56
2022-11-13T07:36:44.136Z,99495.75
2022-11-13T07:39:10.918Z,99494.00
2022-11-13T07:41:37.585Z,99489.91
2022-11-13T07:44:08.843Z,99484.78
2022-11-13T07:46:36.161Z,99483.88
2022-11-13T07:49:02.837Z,99495.72
2022-11-13T07:51:29.502Z,99488.13
2022-11-13T07:53:56.185Z,99490.63
2022-11-13T07:56:23.514Z,99494.12
2022-11-13T07:58:50.329Z,99491.56
2022-11-13T08:01:17.163Z,99484.81
2022-11-13T08:03:43.860Z,99500.19
2022-11-13T08:06:10.740Z,99506.06
2022-11-13T08:08:37.451Z,99505.94
2022-11-13T08:11:06.728Z,99504.31
2022-11-13T08:13:34.435Z,99504.03
2022-11-13T08:16:01.598Z,99511.91
2022-11-13T08:18:28.969Z,99512.09
2022-11-13T08:20:55.950Z,99519.72
2022-11-13T08:23:22.656Z,99520.53
2022-11-13T08:25:49.372Z,99521.44
2022-11-13T08:28:16.090Z,99516.97
2022-11-13T08:30:45.983Z,99524.50
2022-11-13T08:33:12.640Z,99526.41
2022-11-13T08:35:39.458Z,99529.69
2022-11-13T08:38:06.724Z,99527.91
2022-11-13T08:40:33.510Z,99533.50
2022-11-13T08:43:00.744Z,99538.69
2022-11-13T08:45:28.081Z,99537.34
2022-11-13T08:47:54.762Z,99539.66
2022-11-13T08:50:21.448Z,99542.28
2022-11-13T08:52:48.197Z,99532.81
2022-11-13T08:55:14.928Z,99537.72
2022-11-13T08:57:41.651Z,99537.72
2022-11-13T09:00:08.599Z,99539.75
2022-11-13T09:02:35.242Z,99538.28
2022-11-13T09:05:01.924Z,99537.00
2022-11-13T09:07:28.632Z,99535.81
2022-11-13T09:09:55.303Z,99541.00
2022-11-13T09:12:21.945Z,99534.81
2022-11-13T09:14:48.638Z,99539.16
2022-11-13T09:17:15.382Z,99540.00
2022-11-13T09:19:42.110Z,99534.91
2022-11-13T09:22:08.745Z,99532.31
2022-11-13T09:24:35.376Z,99537.03
2022-11-13T09:27:02.043Z,99534.19
2022-11-13T09:29:28.864Z,99533.34
2022-11-13T09:31:55.775Z,99527.72
2022-11-13T09:34:22.681Z,99520.78
2022-11-13T09:36:49.352Z,99526.25
2022-11-13T09:39:17.358Z,99521.34
2022-11-13T09:41:54.370Z,99514.09
2022-11-13T09:44:24.750Z,99517.78
2022-11-13T09:46:54.930Z,99501.03
2022-11-13T09:49:21.563Z,99496.47
2022-11-13T09:51:50.763Z,99494.47
2022-11-13T09:54:17.476Z,99491.56
2022-11-13T09:56:47.205Z,99485.94
2022-11-13T09:59:22.694Z,99488.56
2022-11-13T10:02:08.307Z,99483.00
2022-11-13T10:04:53.490Z,99480.94
2022-11-13T10:07:43.424Z,99467.69
2022-11-13T10:10:22.919Z,99460.03
2022-11-13T10:12:50.110Z,99459.00
2022-11-13T10:15:16.866Z,99455.75
2022-11-13T10:17:49.257Z,99447.19
2022-11-13T10:20:16.253Z,99438.47
2022-11-13T10:22:51.925Z,99458.28
2022-11-13T10:27:15.379Z,99445.16
2022-11-13T10:29:47.746Z,99445.16
2022-11-13T10:32:23.835Z,99444.78
2022-11-13T10:35:09.761Z,99437.41
2022-11-13T10:38:00.907Z,99429.25
2022-11-13T10:40:35.349Z,99426.12
2022-11-13T10:43:17.138Z,99436.37
2022-11-13T10:45:57.815Z,99427.16
2022-11-13T10:48:27.051Z,99427.16
2022-11-13T10:51:02.352Z,99422.59
2022-11-13T10:53:38.371Z,99430.91
2022-11-13T10:56:22.817Z,99412.13
2022-11-13T10:59:10.621Z,99421.91
2022-11-13T11:01:37.746Z,99418.34
2022-11-13T11:04:12.726Z,99408.41
2022-11-13T11:09:31.215Z,99410.41
2022-11-13T11:12:30.225Z,99414.91
2022-11-13T11:14:57.308Z,99407.84
2022-11-13T11:17:25.711Z,99401.13
2022-11-13T11:20:05.829Z,99401.28
2022-11-13T11:22:35.258Z,99394.44
2022-11-13T11:25:26.193Z,99389.91
2022-11-13T11:28:01.138Z,99392.81
2022-11-13T11:30:32.344Z,99386.84
2022-11-13T11:33:10.182Z,99371.62
2022-11-13T11:35:49.469Z,99374.03
2022-11-13T11:38:22.202Z,99365.56
2022-11-13T11:40:54.170Z,99365.16
2022-11-13T11:43:28.818Z,99360.37
2022-11-13T11:45:55.708Z,99359.06
2022-11-13T11:48:26.688Z,99353.06
2022-11-13T11:51:12.680Z,99353.94
2022-11-13T11:53:58.893Z,99348.38
2022-11-13T11:56:35.796Z,99354.38
2022-11-13T11:59:15.879Z,99341.22
2022-11-13T12:02:04.509Z,99339.69
2022-11-13T12:04:38.788Z,99331.28
2022-11-13T12:07:25.281Z,99331.94
2022-11-13T12:10:23.664Z,99327.38
2022-11-13T12:13:06.236Z,99318.19
2022-11-13T12:15:51.504Z,99323.78
2022-11-13T12:18:30.768Z,99327.19
2022-11-13T12:21:18.392Z,99316.28
2022-11-13T12:23:57.654Z,99308.44
2022-11-13T12:26:51.721Z,99308.97
2022-11-13T12:29:46.207Z,99297.88
2022-11-13T12:32:20.984Z,99291.97
2022-11-13T12:34:57.598Z,99295.06
2022-11-13T12:37:54.955Z,99287.97
2022-11-13T12:40:50.917Z,99280.53
2022-11-13T12:43:29.986Z,99284.91
2022-11-13T12:46:00.975Z,99280.59
2022-11-13T12:48:36.707Z,99287.78
2022-11-13T12:51:11.026Z,99284.28
2022-11-13T12:53:48.669Z,99289.59
2022-11-13T12:56:31.187Z,99286.81
2022-11-13T12:59:28.511Z,99286.94
2022-11-13T13:01:57.468Z,99289.38
2022-11-13T13:04:55.775Z,99289.38
2022-11-13T13:08:05.012Z,99282.03
2022-11-13T13:10:42.036Z,99294.88
2022-11-13T13:13:18.234Z,99287.44
2022-11-13T13:15:56.612Z,99286.31
2022-11-13T13:18:23.403Z,99284.13
2022-11-13T13:21:01.627Z,99281.97
2022-11-13T13:23:31.849Z,99287.09
2022-11-13T13:26:26.043Z,99280.31
2022-11-13T13:28:55.024Z,99276.34
2022-11-13T13:31:43.624Z,99272.56
2022-11-13T13:34:44.850Z,99271.66
2022-11-13T13:37:46.972Z,99276.41
2022-11-13T13:40:38.515Z,99260.22
2022-11-13T13:43:23.806Z,99259.06
2022-11-13T13:46:13.402Z,99259.13
2022-11-13T13:48:41.858Z,99260.41
2022-11-13T13:51:24.014Z,99258.31
2022-11-13T13:53:51.095Z,99258.09
2022-11-13T13:56:19.021Z,99255.06
2022-11-13T13:58:46.199Z,99251.94
2022-11-13T14:01:19.945Z,99246.97
2022-11-13T14:03:47.397Z,99252.91
2022-11-13T14:06:24.825Z,99240.34
2022-11-13T14:08:51.781Z,99245.22
2022-11-13T14:11:30.047Z,99242.09
2022-11-13T14:14:08.292Z,99249.00
2022-11-13T14:16:35.211Z,99240.88
2022-11-13T14:19:05.754Z,99241.34
2022-11-13T14:21:32.972Z,99232.88
2022-11-13T14:24:02.640Z,99233.97
2022-11-13T14:26:29.765Z,99228.00
2022-11-13T14:28:59.277Z,99230.87
2022-11-13T14:31:32.637Z,99227.47
2022-11-13T14:34:10.086Z,99215.69
2022-11-13T14:36:37.786Z,99211.56
2022-11-13T14:39:05.044Z,99218.69
2022-11-13T14:42:01.286Z,99215.63
2022-11-13T14:44:36.878Z,99218.34
2022-11-13T14:47:06.421Z,99206.16
2022-11-13T14:49:36.115Z,99206.13
2022-11-13T14:52:03.198Z,99203.97
2022-11-13T14:55:00.517Z,99210.84
2022-11-13T14:57:24.810Z,99212.62
2022-11-13T14:59:51.688Z,99210.31
2022-11-13T15:02:20.387Z,99205.19
2022-11-13T15:04:47.255Z,99208.78
2022-11-13T15:07:33.974Z,99203.38
2022-11-13T15:10:01.399Z,99204.81
2022-11-13T15:12:28.247Z,99207.19
2022-11-13T15:14:54.945Z,99198.50
2022-11-13T15:17:22.592Z,99204.28
2022-11-13T15:19:52.447Z,99207.72
2022-11-13T15:22:27.943Z,99205.88
2022-11-13T15:24:55.471Z,99207.91
2022-11-13T15:27:22.399Z,99204.94
2022-11-13T15:29:49.305Z,99201.72
2022-11-13T15:32:16.285Z,99207.28
2022-11-13T15:34:43.328Z,99214.63
2022-11-13T15:37:15.038Z,99215.28
2022-11-13T15:39:42.007Z,99207.84
2022-11-13T15:42:14.127Z,99209.66
2022-11-13T15:44:41.080Z,99209.44
2022-11-13T15:47:23.847Z,99212.72
2022-11-13T15:50:12.325Z,99207.69
2022-11-13T15:52:39.756Z,99204.41
2022-11-13T15:55:17.630Z,99206.03
2022-11-13T15:57:44.506Z,99206.19
2022-11-13T16:00:25.099Z,99199.22
2022-11-13T16:02:56.679Z,99191.31
2022-11-13T16:05:25.729Z,99192.59
2022-11-13T16:07:53.657Z,99191.88
2022-11-13T16:10:21.917Z,99183.78
2022-11-13T16:12:48.844Z,99179.56
2022-11-13T16:15:16.941Z,99191.31
2022-11-13T16:17:48.985Z,99195.00
2022-11-13T16:20:17.267Z,99194.06
2022-11-13T16:22:44.717Z,99195.63
2022-11-13T16:25:17.773Z,99200.00
2022-11-13T16:27:44.727Z,99197.97
2022-11-13T16:30:28.511Z,99196.44
2022-11-13T16:32:55.352Z,99198.41
2022-11-13T16:35:22.075Z,99192.44
2022-11-13T16:37:48.942Z,99196.38
2022-11-13T16:40:15.614Z,99197.06
2022-11-13T16:42:42.549Z,99199.25
2022-11-13T16:45:09.558Z,99191.25
2022-11-13T16:47:36.755Z,99193.37
2022-11-13T16:50:03.753Z,99192.47
2022-11-13T16:52:32.033Z,99194.22
2022-11-13T16:55:03.574Z,99190.94
2022-11-13T16:57:33.069Z,99186.37
2022-11-13T16:59:59.722Z,99191.22
2022-11-13T17:02:26.727Z,99199.25
2022-11-13T17:04:56.136Z,99199.91
2022-11-13T17:07:23.073Z,99192.75
2022-11-13T17:10:10.014Z,99194.19
2022-11-13T17:12:36.894Z,99201.59
2022-11-13T17:15:03.900Z,99198.25
2022-11-13T17:17:30.759Z,99192.94
2022-11-13T17:19:57.484Z,99201.47
2022-11-13T17:22:24.429Z,99196.16
2022-11-13T17:24:51.320Z,99195.78
2022-11-13T17:27:18.272Z,99197.34
2022-11-13T17:29:45.126Z,99181.28
2022-11-13T17:32:11.781Z,99200.50
2022-11-13T17:34:38.630Z,99193.37
2022-11-13T17:37:05.355Z,99189.78
2022-11-13T17:39:32.284Z,99188.88
2022-11-13T17:41:59.162Z,99196.72
2022-11-13T17:44:25.803Z,99196.25
2022-11-13T17:46:52.646Z,99197.75
2022-11-13T17:49:19.396Z,99199.56
2022-11-13T17:51:46.250Z,99202.34
2022-11-13T17:54:12.993Z,99198.16
2022-11-13T17:56:41.639Z,99190.59
2022-11-13T17:59:11.178Z,99190.75
2022-11-13T18:01:38.068Z,99196.44
2022-11-13T18:04:05.133Z,99192.59
2022-11-13T18:06:31.955Z,99191.44
2022-11-13T18:08:58.735Z,99198.47
2022-11-13T18:11:27.155Z,99199.22
2022-11-13T18:13:54.145Z,99203.13
2022-11-13T18:16:25.936Z,99207.31
2022-11-13T18:18:55.610Z,99205.31
2022-11-13T18:21:26.742Z,99196.22
2022-11-13T18:24:04.925Z,99195.84
2022-11-13T18:26:32.672Z,99199.66
2022-11-13T18:29:01.021Z,99194.38
2022-11-13T18:31:28.282Z,99196.59
2022-11-13T18:33:56.362Z,99198.50
2022-11-13T18:36:23.306Z,99203.25
2022-11-13T18:38:50.208Z,99198.88
2022-11-13T18:41:20.125Z,99196.41
2022-11-13T18:43:48.638Z,99202.63
2022-11-13T18:46:17.559Z,99201.47
2022-11-13T18:48:45.524Z,99201.22
2022-11-13T18:51:14.976Z,99203.16
2022-11-13T18:53:43.773Z,99199.81
2022-11-13T18:56:13.782Z,99198.03
2022-11-13T18:58:42.885Z,99202.81
2022-11-13T19:01:11.868Z,99196.81
2022-11-13T19:03:50.836Z,99198.41
2022-11-13T19:06:27.101Z,99199.34
2022-11-13T19:09:01.787Z,99199.22
2022-11-13T19:11:30.180Z,99191.28
2022-11-13T19:13:57.216Z,99190.38
2022-11-13T19:16:26.258Z,99203.69
2022-11-13T19:18:55.226Z,99200.75
2022-11-13T19:21:24.149Z,99197.91
2022-11-13T19:23:51.299Z,99206.75
2022-11-13T19:26:18.392Z,99203.50
2022-11-13T19:28:49.726Z,99198.88
2022-11-13T19:31:19.623Z,99200.28
2022-11-13T19:33:46.721Z,99201.41
2022-11-13T19:36:18.142Z,99197.78
2022-11-13T19:38:45.403Z,99198.56
2022-11-13T19:41:12.714Z,99196.22
2022-11-13T19:43:41.003Z,99201.37
2022-11-13T19:46:10.105Z,99196.22
2022-11-13T19:48:38.833Z,99196.84
2022-11-13T19:51:09.841Z,99185.63
2022-11-13T19:53:37.264Z,99192.28
2022-11-13T19:56:04.953Z,99183.16
2022-11-13T19:58:32.119Z,99186.34
2022-11-13T20:00:59.170Z,99191.34
2022-11-13T20:03:27.513Z,99197.97
2022-11-13T20:05:56.140Z,99194.88
2022-11-13T20:08:26.804Z,99192.63
2022-11-13T20:10:54.947Z,99190.56
2022-11-13T20:13:21.823Z,99184.22
2022-11-13T20:15:54.905Z,99188.62
2022-11-13T20:18:21.757Z,99184.38
2022-11-13T20:20:54.274Z,99190.06
2022-11-13T20:23:21.659Z,99184.66
2022-11-13T20:25:52.440Z,99192.53
2022-11-13T20:28:19.362Z,99186.19
2022-11-13T20:30:46.187Z,99184.94
2022-11-13T20:33:12.857Z,99180.28
2022-11-13T20:35:39.746Z,99180.19
2022-11-13T20:38:06.609Z,99179.25
2022-11-13T20:40:33.293Z,99176.97
2022-11-13T20:43:00.179Z,99182.19
2022-11-13T20:45:27.074Z,99176.06
2022-11-13T20:47:53.948Z,99179.22
2022-11-13T20:50:20.801Z,99181.62
2022-11-13T20:52:47.429Z,99176.59
2022-11-13T20:55:14.295Z,99166.50
2022-11-13T20:57:41.298Z,99167.00
2022-11-13T21:00:09.580Z,99163.56
2022-11-13T21:02:36.853Z,99166.91
2022-11-13T21:05:03.846Z,99176.88
2022-11-13T21:07:30.784Z,99175.38
2022-11-13T21:09:57.738Z,99169.13
2022-11-13T21:12:24.624Z,99171.19
2022-11-13T21:14:52.222Z,99167.78
2022-11-13T21:17:19.049Z,99166.75
2022-11-13T21:19:45.725Z,99161.38
2022-11-13T21:22:12.547Z,99162.75
2022-11-13T21:24:39.317Z,99162.28
2022-11-13T21:27:06.201Z,99158.53
2022-11-13T21:29:33.094Z,99160.56
2022-11-13T21:31:59.929Z,99154.41
2022-11-13T21:34:26.973Z,99151.56
2022-11-13T21:36:53.616Z,99152.91
2022-11-13T21:39:20.509Z,99148.59
2022-11-13T21:41:47.176Z,99147.97
2022-11-13T21:44:14.147Z,99142.81
2022-11-13T21:46:45.819Z,99140.75
2022-11-13T21:49:13.620Z,99140.44
2022-11-13T21:51:42.742Z,99137.34
2022-11-13T21:54:09.892Z,99137.72
2022-11-13T21:56:37.822Z,99136.91
2022-11-13T21:59:05.715Z,99140.78
2022-11-13T22:01:38.212Z,99134.91
2022-11-13T22:04:06.176Z,99145.09
2022-11-13T22:06:36.439Z,99146.25
2022-11-13T22:09:26.706Z,99150.03
2022-11-13T22:11:53.750Z,99150.62
2022-11-13T22:14:20.633Z,99140.59
2022-11-13T22:16:47.524Z,99145.72
2022-11-13T22:19:24.056Z,99136.06
2022-11-13T22:21:54.192Z,99131.66
2022-11-13T22:24:21.101Z,99142.38
2022-11-13T22:26:50.874Z,99141.47
2022-11-13T22:29:17.815Z,99140.22
2022-11-13T22:31:45.132Z,99144.62
2022-11-13T22:34:12.046Z,99135.38
2022-11-13T22:36:38.943Z,99133.88
2022-11-13T22:39:06.179Z,99133.78
2022-11-13T22:41:34.643Z,99134.50
2022-11-13T22:44:03.869Z,99129.16
2022-11-13T22:46:31.939Z,99127.88
2022-11-13T22:49:01.844Z,99119.00
2022-11-13T22:51:41.288Z,99115.25
2022-11-13T22:54:10.074Z,99115.25
2022-11-13T22:56:38.421Z,99109.06
2022-11-13T22:59:07.105Z,99111.66
2022-11-13T23:01:35.279Z,99112.78
2022-11-13T23:04:04.064Z,99116.41
2022-11-13T23:06:33.877Z,99112.88
2022-11-13T23:09:01.316Z,99095.47
2022-11-13T23:11:30.590Z,99088.53
2022-11-13T23:13:59.145Z,99087.75
2022-11-13T23:16:27.176Z,99083.53
2022-11-13T23:18:56.639Z,99091.88
2022-11-13T23:21:25.380Z,99098.69
2022-11-13T23:23:52.767Z,99110.69
2022-11-13T23:26:19.762Z,99104.78
2022-11-13T23:28:46.759Z,99106.38
2022-11-13T23:31:13.774Z,99113.19
2022-11-13T23:33:40.782Z,99103.00
2022-11-13T23:36:09.179Z,99101.91
2022-11-13T23:38:36.136Z,99112.72
2022-11-13T23:41:03.205Z,99112.75
2022-11-13T23:44:01.681Z,99113.25
2022-11-13T23:46:17.652Z,99108.22
2022-11-13T23:48:44.510Z,99113.16
2022-11-13T23:51:11.170Z,99116.00
2022-11-13T23:53:38.015Z,99114.84
2022-11-13T23:56:04.869Z,99114.03
2022-11-13T23:58:32.666Z,99102.09
